Time;durP1;ratioP1;P1;durP2;ratioP2;P2;SDS_P1;SDS_P2;PMS_P1;PMS_P2;Temp;Humidity;BMP_temperature;BMP_pressure;BME280_temperature;BME280_humidity;BME280_pressure;Samples;Min_cycle;Max_cycle;Signal;HPM_P1;HPM_P2
2023/09/15 00:00:42;;;;;;;;;;;;;;;33.63;29.32;98672.63;5095385;28;19920;-89
2023/09/15 00:03:08;;;;;;;;;;;;;;;33.50;29.36;98669.19;5094741;28;20459;-87
2023/09/15 00:05:34;;;;;;;;;;;;;;;33.34;29.69;98667.56;5091265;28;19920;-87
2023/09/15 00:08:04;;;;;;;;;;;;;;;33.60;29.19;98665.84;5083021;28;19921;-87
2023/09/15 00:10:37;;;;;;;;;;;;;;;33.78;29.22;98668.53;5089150;28;19973;-87
2023/09/15 00:13:03;;;;;;;;;;;;;;;33.76;29.05;98673.16;5092666;28;19920;-87
2023/09/15 00:15:29;;;;;;;;;;;;;;;33.86;28.86;98674.66;5090755;28;20396;-87
2023/09/15 00:17:55;;;;;;;;;;;;;;;33.91;29.10;98671.13;5092568;28;19920;-87
2023/09/15 00:20:21;;;;;;;;;;;;;;;34.02;28.80;98674.19;5089804;28;20296;-86
2023/09/15 00:22:51;;;;;;;;;;;;;;;33.83;29.15;98667.88;5091423;28;19920;-87
2023/09/15 00:25:21;;;;;;;;;;;;;;;33.70;29.13;98670.16;5088891;28;19927;-87
2023/09/15 00:27:48;;;;;;;;;;;;;;;33.75;29.41;98669.50;5089292;28;20300;-86
2023/09/15 00:30:16;;;;;;;;;;;;;;;33.66;29.57;98666.72;5090775;28;19920;-87
2023/09/15 00:32:42;;;;;;;;;;;;;;;33.74;29.17;98667.94;5092784;28;20015;-87
2023/09/15 00:35:08;;;;;;;;;;;;;;;33.89;29.16;98673.66;5088137;28;19920;-88
2023/09/15 00:37:34;;;;;;;;;;;;;;;34.02;28.57;98672.13;5090594;28;19920;-87
2023/09/15 00:40:01;;;;;;;;;;;;;;;34.14;28.94;98678.88;5104471;28;19920;-88
2023/09/15 00:42:27;;;;;;;;;;;;;;;34.13;28.63;98680.13;5083906;28;19921;-86
2023/09/15 00:44:53;;;;;;;;;;;;;;;34.13;28.81;98687.91;5092810;28;19922;-87
2023/09/15 00:47:19;;;;;;;;;;;;;;;33.97;29.10;98687.06;5088624;28;19953;-86
2023/09/15 00:49:45;;;;;;;;;;;;;;;33.90;29.24;98684.59;5088000;28;19930;-87
2023/09/15 00:52:11;;;;;;;;;;;;;;;33.84;29.55;98680.06;5087128;28;19920;-87
2023/09/15 00:54:38;;;;;;;;;;;;;;;34.07;29.20;98680.03;5089012;28;20338;-88
2023/09/15 00:57:05;;;;;;;;;;;;;;;34.03;28.96;98681.47;5093067;28;19920;-87
2023/09/15 00:59:32;;;;;;;;;;;;;;;33.57;29.80;98688.78;5090557;28;19920;-87
2023/09/15 01:01:59;;;;;;;;;;;;;;;33.36;30.00;98691.44;5087918;28;20007;-88
2023/09/15 01:04:27;;;;;;;;;;;;;;;33.31;29.79;98689.22;5092137;28;19920;-86
2023/09/15 01:06:53;;;;;;;;;;;;;;;33.41;29.58;98687.91;5082174;28;19963;-87
2023/09/15 01:09:20;;;;;;;;;;;;;;;33.77;29.17;98688.97;5092746;28;19919;-87
2023/09/15 01:11:46;;;;;;;;;;;;;;;33.97;29.06;98686.28;5094063;28;19919;-87
2023/09/15 01:14:12;;;;;;;;;;;;;;;34.01;28.76;98681.94;5092481;28;19920;-87
2023/09/15 01:16:42;;;;;;;;;;;;;;;34.17;28.66;98683.56;5086178;28;19932;-88
2023/09/15 01:19:08;;;;;;;;;;;;;;;34.26;28.82;98691.28;5073771;28;19916;-87
2023/09/15 01:21:46;;;;;;;;;;;;;;;34.30;28.66;98678.41;5087013;28;19927;-88
2023/09/15 01:24:31;;;;;;;;;;;;;;;34.24;28.79;98686.03;5088226;28;19916;-87
2023/09/15 01:27:15;;;;;;;;;;;;;;;33.72;29.29;98681.09;5081951;28;19927;-88
2023/09/15 01:29:47;;;;;;;;;;;;;;;34.03;29.19;98685.13;5089251;28;19928;-87
2023/09/15 01:32:14;;;;;;;;;;;;;;;34.23;28.90;98681.63;5077979;28;19996;-86
2023/09/15 01:34:48;;;;;;;;;;;;;;;34.05;28.89;98687.50;5089753;28;20002;-86
2023/09/15 01:37:14;;;;;;;;;;;;;;;34.15;28.61;98680.44;5082187;28;19921;-88
2023/09/15 01:39:40;;;;;;;;;;;;;;;34.24;28.79;98686.03;5087931;28;19916;-88
2023/09/15 01:42:06;;;;;;;;;;;;;;;34.25;28.96;98692.53;5092860;28;20396;-86
2023/09/15 01:44:32;;;;;;;;;;;;;;;34.13;28.99;98683.00;5091286;28;20355;-88
2023/09/15 01:46:58;;;;;;;;;;;;;;;34.33;28.61;98683.09;5089712;28;19924;-88
2023/09/15 01:49:24;;;;;;;;;;;;;;;34.26;28.60;98689.19;5089827;28;19920;-85
2023/09/15 01:51:51;;;;;;;;;;;;;;;34.12;28.72;98689.19;5087846;28;20019;-85
2023/09/15 01:54:17;;;;;;;;;;;;;;;34.18;28.79;98693.72;5088663;28;20014;-85
2023/09/15 01:56:44;;;;;;;;;;;;;;;34.20;28.75;98694.00;5092846;28;19916;-85
2023/09/15 01:59:10;;;;;;;;;;;;;;;33.96;29.21;98694.03;5091101;28;19920;-85
2023/09/15 02:01:36;;;;;;;;;;;;;;;33.67;29.46;98698.84;5096975;28;19935;-85
2023/09/15 02:04:03;;;;;;;;;;;;;;;33.49;30.13;98690.41;5096343;28;20002;-85
2023/09/15 02:06:29;;;;;;;;;;;;;;;33.79;29.45;98697.81;5081258;28;19920;-85
2023/09/15 02:08:56;;;;;;;;;;;;;;;33.96;29.09;98691.19;5095797;28;19920;-85
2023/09/15 02:11:23;;;;;;;;;;;;;;;34.12;28.98;98689.19;5097299;28;19943;-85
2023/09/15 02:13:49;;;;;;;;;;;;;;;33.76;29.15;98699.56;5096393;28;19923;-84
2023/09/15 02:16:15;;;;;;;;;;;;;;;33.59;29.68;98694.78;5097031;28;19924;-85
2023/09/15 02:18:41;;;;;;;;;;;;;;;33.67;29.59;98701.69;5096678;28;19927;-85
2023/09/15 02:21:07;;;;;;;;;;;;;;;33.70;29.50;98695.03;5096579;28;19966;-84
2023/09/15 02:23:33;;;;;;;;;;;;;;;33.95;29.17;98701.03;5096619;28;20010;-85
2023/09/15 02:26:02;;;;;;;;;;;;;;;34.05;28.79;98693.22;5096860;28;20323;-85
2023/09/15 02:28:28;;;;;;;;;;;;;;;34.28;28.47;98700.91;5094883;28;19970;-85
2023/09/15 02:30:55;;;;;;;;;;;;;;;34.37;28.48;98691.47;5095219;28;19922;-85
2023/09/15 02:33:22;;;;;;;;;;;;;;;34.41;28.36;98694.91;5096778;28;20041;-85
2023/09/15 02:35:48;;;;;;;;;;;;;;;34.45;28.06;98689.81;5097205;28;20035;-85
2023/09/15 02:38:14;;;;;;;;;;;;;;;34.38;28.30;98696.69;5096598;28;19922;-85
2023/09/15 02:40:41;;;;;;;;;;;;;;;33.84;28.82;98692.22;5096171;28;20019;-86
2023/09/15 02:43:08;;;;;;;;;;;;;;;33.63;29.34;98703.94;5096406;28;19917;-85
2023/09/15 02:45:35;;;;;;;;;;;;;;;33.59;29.35;98701.28;5094793;28;19925;-85
2023/09/15 02:48:02;;;;;;;;;;;;;;;33.56;29.21;98699.38;5088974;28;19942;-85
2023/09/15 02:50:28;;;;;;;;;;;;;;;33.75;29.12;98705.78;5096572;28;19916;-85
2023/09/15 02:52:54;;;;;;;;;;;;;;;33.24;29.55;98705.88;5095142;28;20436;-85
2023/09/15 02:55:21;;;;;;;;;;;;;;;33.00;29.81;98702.19;5096485;28;19977;-85
2023/09/15 02:57:54;;;;;;;;;;;;;;;33.40;29.39;98714.00;5105451;28;19923;-85
2023/09/15 03:00:20;;;;;;;;;;;;;;;33.70;29.08;98715.75;5108991;28;19987;-85
2023/09/15 03:02:46;;;;;;;;;;;;;;;33.37;29.38;98709.31;5092750;28;19924;-84
2023/09/15 03:05:13;;;;;;;;;;;;;;;33.35;29.13;98714.69;5083880;28;19922;-84
2023/09/15 03:07:39;;;;;;;;;;;;;;;33.67;28.88;98707.41;5089483;28;20010;-84
2023/09/15 03:10:06;;;;;;;;;;;;;;;33.55;29.04;98711.28;5095730;28;19916;-84
2023/09/15 03:12:36;;;;;;;;;;;;;;;33.65;28.75;98715.66;5095940;28;20388;-84
2023/09/15 03:15:05;;;;;;;;;;;;;;;33.51;28.81;98713.50;5094924;28;19916;-84
2023/09/15 03:17:31;;;;;;;;;;;;;;;33.59;28.81;98703.31;5096582;28;19943;-85
2023/09/15 03:19:58;;;;;;;;;;;;;;;33.75;28.36;98708.63;5096209;28;19920;-85
2023/09/15 03:22:24;;;;;;;;;;;;;;;33.77;28.46;98711.75;5095872;28;20316;-85
2023/09/15 03:24:50;;;;;;;;;;;;;;;33.46;28.73;98714.94;5095841;28;19923;-84
2023/09/15 03:27:16;;;;;;;;;;;;;;;33.32;29.00;98709.97;5095826;28;19927;-84
2023/09/15 03:29:42;;;;;;;;;;;;;;;33.51;28.32;98711.44;5095450;28;19930;-84
2023/09/15 03:32:08;;;;;;;;;;;;;;;33.64;28.14;98716.91;5095931;28;19974;-84
2023/09/15 03:34:38;;;;;;;;;;;;;;;33.74;28.23;98713.53;5095796;28;19990;-84
2023/09/15 03:37:07;;;;;;;;;;;;;;;33.76;27.90;98716.66;5095603;28;19924;-84
2023/09/15 03:39:33;;;;;;;;;;;;;;;33.54;28.40;98721.09;5095675;28;19916;-85
2023/09/15 03:41:59;;;;;;;;;;;;;;;33.61;28.20;98715.81;5092342;28;19924;-85
2023/09/15 03:44:25;;;;;;;;;;;;;;;33.68;28.06;98723.22;5085049;28;20053;-84
2023/09/15 03:46:52;;;;;;;;;;;;;;;33.69;28.14;98721.94;5094923;28;20444;-85
2023/09/15 03:49:18;;;;;;;;;;;;;;;33.72;28.34;98716.06;5095259;28;19916;-84
2023/09/15 03:51:44;;;;;;;;;;;;;;;33.68;28.36;98724.00;5095351;28;20395;-84
2023/09/15 03:54:10;;;;;;;;;;;;;;;33.27;28.46;98722.78;5095535;28;19922;-84
2023/09/15 03:56:36;;;;;;;;;;;;;;;33.40;28.33;98728.25;5094518;28;19924;-85
2023/09/15 03:59:03;;;;;;;;;;;;;;;33.37;28.29;98729.22;5095176;28;19916;-84
2023/09/15 04:01:30;;;;;;;;;;;;;;;33.10;29.10;98729.34;5094827;28;19924;-84
2023/09/15 04:03:56;;;;;;;;;;;;;;;33.11;29.01;98726.03;5086838;28;20027;-85
2023/09/15 04:06:22;;;;;;;;;;;;;;;32.99;28.76;98729.84;5090502;28;19942;-85
2023/09/15 04:08:48;;;;;;;;;;;;;;;32.77;29.50;98732.13;5084303;28;19970;-85
2023/09/15 04:11:14;;;;;;;;;;;;;;;32.66;29.74;98740.38;5091278;28;20381;-86
2023/09/15 04:13:40;;;;;;;;;;;;;;;32.60;29.65;98736.59;5080243;28;19920;-85
2023/09/15 04:16:06;;;;;;;;;;;;;;;32.55;29.64;98740.88;5089059;28;19935;-84
2023/09/15 04:18:32;;;;;;;;;;;;;;;32.64;29.74;98743.69;5088980;28;19927;-85
2023/09/15 04:20:59;;;;;;;;;;;;;;;33.03;28.61;98741.88;5083457;28;19928;-85
2023/09/15 04:23:25;;;;;;;;;;;;;;;33.34;28.43;98748.06;5088061;28;19920;-84
2023/09/15 04:25:51;;;;;;;;;;;;;;;33.22;29.02;98746.22;5089150;28;19917;-84
2023/09/15 04:28:17;;;;;;;;;;;;;;;33.33;28.16;98755.00;5092494;28;19920;-85
2023/09/15 04:30:43;;;;;;;;;;;;;;;33.19;28.62;98755.72;5093313;28;19920;-85
2023/09/15 04:33:09;;;;;;;;;;;;;;;32.98;28.71;98755.94;5085362;28;19990;-84
2023/09/15 04:35:36;;;;;;;;;;;;;;;33.02;28.29;98759.44;5086177;28;20384;-84
2023/09/15 04:38:02;;;;;;;;;;;;;;;32.84;28.79;98759.47;5088235;28;19928;-84
2023/09/15 04:40:28;;;;;;;;;;;;;;;32.99;28.35;98761.13;5087958;28;19924;-84
2023/09/15 04:42:54;;;;;;;;;;;;;;;33.24;28.00;98759.97;5086527;28;20392;-85
2023/09/15 04:45:20;;;;;;;;;;;;;;;33.39;28.21;98761.66;5089882;28;19936;-84
2023/09/15 04:47:46;;;;;;;;;;;;;;;33.56;28.09;98762.03;5093326;28;19927;-87
2023/09/15 04:50:12;;;;;;;;;;;;;;;33.49;27.86;98764.44;5086272;28;19928;-86
2023/09/15 04:52:38;;;;;;;;;;;;;;;33.66;27.97;98771.31;5083183;28;19927;-86
2023/09/15 04:55:05;;;;;;;;;;;;;;;33.67;27.96;98768.00;5088361;28;19920;-84
2023/09/15 04:57:31;;;;;;;;;;;;;;;33.50;28.03;98771.69;5083050;28;20468;-86
2023/09/15 04:59:57;;;;;;;;;;;;;;;33.36;28.22;98765.44;5087764;28;20512;-86
2023/09/15 05:02:24;;;;;;;;;;;;;;;33.15;28.35;98774.22;5081241;28;19916;-85
2023/09/15 05:04:51;;;;;;;;;;;;;;;33.14;28.34;98778.38;5092188;28;20301;-86
2023/09/15 05:07:17;;;;;;;;;;;;;;;33.22;28.76;98773.88;5093785;28;19916;-86
2023/09/15 05:09:43;;;;;;;;;;;;;;;33.29;28.50;98780.03;5094013;28;19916;-86
2023/09/15 05:12:09;;;;;;;;;;;;;;;33.54;28.75;98781.69;5094010;28;20307;-86
2023/09/15 05:14:35;;;;;;;;;;;;;;;33.71;28.80;98782.06;5094105;28;19922;-86
2023/09/15 05:17:01;;;;;;;;;;;;;;;33.84;28.45;98789.09;5094260;28;20019;-85
2023/09/15 05:19:27;;;;;;;;;;;;;;;33.74;28.82;98787.59;5094045;28;20011;-85
2023/09/15 05:21:53;;;;;;;;;;;;;;;32.95;30.35;98786.13;5093682;28;19923;-85
2023/09/15 05:24:19;;;;;;;;;;;;;;;32.47;30.82;98793.59;5093951;28;20422;-86
2023/09/15 05:26:45;;;;;;;;;;;;;;;31.94;31.80;98784.56;5093470;28;19916;-86
2023/09/15 05:29:11;;;;;;;;;;;;;;;32.24;32.23;98785.72;5093998;28;19950;-86
2023/09/15 05:31:37;;;;;;;;;;;;;;;30.86;34.04;98784.09;5093861;28;19916;-86
2023/09/15 05:34:03;;;;;;;;;;;;;;;31.32;33.78;98785.94;5092097;28;19916;-85
2023/09/15 05:36:29;;;;;;;;;;;;;;;29.76;35.53;98793.72;5093336;28;19959;-85
2023/09/15 05:38:55;;;;;;;;;;;;;;;30.01;35.85;98796.47;5093611;28;19999;-85
2023/09/15 05:41:21;;;;;;;;;;;;;;;30.69;34.67;98795.63;5093758;28;19956;-84
2023/09/15 05:43:47;;;;;;;;;;;;;;;29.62;35.87;98796.97;5093654;28;20018;-85
2023/09/15 05:46:13;;;;;;;;;;;;;;;29.87;34.97;98799.03;5092317;28;19934;-84
2023/09/15 05:48:39;;;;;;;;;;;;;;;29.10;36.69;98800.25;5093629;28;19927;-84
2023/09/15 05:51:07;;;;;;;;;;;;;;;29.40;36.68;98799.75;5091970;28;20262;-84
2023/09/15 05:53:33;;;;;;;;;;;;;;;29.93;35.98;98795.16;5093613;28;19958;-85
2023/09/15 05:55:59;;;;;;;;;;;;;;;29.92;36.07;98798.44;5093419;28;19942;-85
2023/09/15 05:58:25;;;;;;;;;;;;;;;30.28;35.13;98804.44;5093747;28;19917;-85
2023/09/15 06:00:55;;;;;;;;;;;;;;;30.48;34.41;98802.09;5083719;28;19923;-85
2023/09/15 06:03:25;;;;;;;;;;;;;;;29.04;36.64;98798.44;5073307;28;19982;-85
2023/09/15 06:05:51;;;;;;;;;;;;;;;29.18;36.45;98801.66;5071920;28;19920;-85
2023/09/15 06:08:21;;;;;;;;;;;;;;;29.57;36.41;98806.03;5073233;28;19962;-85
2023/09/15 06:10:47;;;;;;;;;;;;;;;28.45;37.92;98808.22;5075319;28;19962;-85
2023/09/15 06:13:14;;;;;;;;;;;;;;;29.50;36.47;98805.50;5093390;28;19916;-85
2023/09/15 06:15:40;;;;;;;;;;;;;;;28.29;37.75;98805.44;5093418;28;19924;-86
2023/09/15 06:18:06;;;;;;;;;;;;;;;28.42;38.39;98814.78;5093393;28;20327;-85
2023/09/15 06:20:33;;;;;;;;;;;;;;;28.73;37.09;98801.78;5091816;28;20011;-86
2023/09/15 06:23:02;;;;;;;;;;;;;;;29.21;36.55;98812.06;5093240;28;19916;-85
2023/09/15 06:25:30;;;;;;;;;;;;;;;30.39;35.51;98819.03;5093213;28;19920;-85
2023/09/15 06:27:57;;;;;;;;;;;;;;;30.65;34.63;98812.00;5092880;28;19955;-85
2023/09/15 06:30:23;;;;;;;;;;;;;;;30.61;35.05;98810.56;5093266;28;19916;-85
2023/09/15 06:32:49;;;;;;;;;;;;;;;31.31;33.63;98807.84;5093310;28;19959;-85
2023/09/15 06:35:15;;;;;;;;;;;;;;;29.80;35.67;98811.34;5091518;28;19928;-85
2023/09/15 06:37:41;;;;;;;;;;;;;;;29.83;34.97;98820.97;5093331;28;20313;-85
2023/09/15 06:40:08;;;;;;;;;;;;;;;29.24;35.94;98813.19;5093221;28;20288;-86
2023/09/15 06:42:34;;;;;;;;;;;;;;;29.91;35.30;98813.84;5093072;28;20288;-86
2023/09/15 06:45:00;;;;;;;;;;;;;;;30.86;34.43;98816.06;5093116;28;20416;-85
2023/09/15 06:47:26;;;;;;;;;;;;;;;30.54;34.11;98822.16;5097072;28;19935;-86
2023/09/15 06:49:52;;;;;;;;;;;;;;;30.67;33.97;98815.16;5095245;28;19970;-86
2023/09/15 06:52:18;;;;;;;;;;;;;;;31.04;33.12;98798.41;5096685;28;19947;-86
2023/09/15 06:54:44;;;;;;;;;;;;;;;30.49;33.81;98802.91;5096641;28;19916;-86
2023/09/15 06:57:10;;;;;;;;;;;;;;;30.95;32.49;98804.81;5096628;28;20003;-86
2023/09/15 06:59:36;;;;;;;;;;;;;;;30.51;32.77;98811.72;5086777;28;19997;-85
2023/09/15 07:02:02;;;;;;;;;;;;;;;30.17;34.02;98815.38;5080385;28;19916;-86
2023/09/15 07:04:29;;;;;;;;;;;;;;;30.76;33.34;98817.25;5096249;28;19912;-86
2023/09/15 07:06:55;;;;;;;;;;;;;;;31.59;32.07;98805.94;5096337;28;19970;-86
2023/09/15 07:09:24;;;;;;;;;;;;;;;31.53;32.15;98813.47;5096426;28;19916;-86
2023/09/15 07:11:50;;;;;;;;;;;;;;;32.01;31.71;98815.53;5096388;28;19924;-85
2023/09/15 07:14:17;;;;;;;;;;;;;;;31.27;32.27;98817.75;5096337;28;19945;-86
2023/09/15 07:16:46;;;;;;;;;;;;;;;31.12;31.96;98820.38;5096557;28;19916;-86
2023/09/15 07:19:12;;;;;;;;;;;;;;;32.03;31.32;98815.84;5095899;28;19924;-86
2023/09/15 07:21:40;;;;;;;;;;;;;;;32.12;31.45;98819.94;5094897;28;19945;-86
2023/09/15 07:24:10;;;;;;;;;;;;;;;30.66;33.01;98824.94;5096020;28;20007;-88
2023/09/15 07:26:36;;;;;;;;;;;;;;;29.50;35.62;98831.75;5095988;28;20365;-85
2023/09/15 07:29:03;;;;;;;;;;;;;;;29.87;35.02;98821.69;5094483;28;20011;-87
2023/09/15 07:31:32;;;;;;;;;;;;;;;30.51;34.74;98823.06;5095908;28;19916;-86
2023/09/15 07:33:58;;;;;;;;;;;;;;;28.85;36.17;98819.19;5095747;28;19923;-85
2023/09/15 07:36:24;;;;;;;;;;;;;;;30.38;33.69;98822.34;5095530;28;19920;-86
2023/09/15 07:38:50;;;;;;;;;;;;;;;31.12;32.84;98822.41;5096074;28;20295;-86
2023/09/15 07:41:17;;;;;;;;;;;;;;;30.67;33.01;98834.22;5096006;28;19916;-86
2023/09/15 07:43:43;;;;;;;;;;;;;;;31.32;31.85;98828.50;5095571;28;19916;-87
2023/09/15 07:46:09;;;;;;;;;;;;;;;31.27;31.70;98826.28;5095834;28;19920;-86
2023/09/15 07:48:35;;;;;;;;;;;;;;;31.16;31.60;98835.19;5095438;28;19951;-87
2023/09/15 07:51:01;;;;;;;;;;;;;;;30.72;32.59;98828.75;5095522;28;19916;-85
2023/09/15 07:53:27;;;;;;;;;;;;;;;30.99;32.37;98825.34;5095389;28;19956;-85
2023/09/15 07:55:53;;;;;;;;;;;;;;;31.28;31.98;98839.19;5087105;28;19920;-88
2023/09/15 07:58:19;;;;;;;;;;;;;;;31.56;32.03;98828.78;5081121;28;20022;-88
2023/09/15 08:00:46;;;;;;;;;;;;;;;32.49;31.10;98822.38;5091587;28;19920;-89
2023/09/15 08:03:12;;;;;;;;;;;;;;;32.49;30.09;98830.91;5092423;28;19920;-88
2023/09/15 08:05:38;;;;;;;;;;;;;;;32.58;30.29;98824.44;5083561;28;19920;-87
2023/09/15 08:08:04;;;;;;;;;;;;;;;32.79;28.82;98822.69;5084175;28;19967;-88
2023/09/15 08:10:31;;;;;;;;;;;;;;;32.14;30.07;98828.81;5089694;28;19920;-88
2023/09/15 08:12:57;;;;;;;;;;;;;;;31.69;31.29;98833.09;5093411;28;19986;-87
2023/09/15 08:15:23;;;;;;;;;;;;;;;29.82;34.13;98840.03;5091128;28;19932;-88
2023/09/15 08:17:49;;;;;;;;;;;;;;;29.70;35.07;98845.66;5086184;28;20682;-88
2023/09/15 08:20:15;;;;;;;;;;;;;;;29.37;33.86;98839.44;5090946;28;19920;-88
2023/09/15 08:22:41;;;;;;;;;;;;;;;31.14;32.13;98834.06;5093319;28;19927;-89
2023/09/15 08:25:10;;;;;;;;;;;;;;;32.46;29.90;98829.00;5091601;28;20276;-89
2023/09/15 08:27:37;;;;;;;;;;;;;;;30.82;32.37;98831.63;5087254;28;19978;-87
2023/09/15 08:30:03;;;;;;;;;;;;;;;31.72;31.13;98832.16;5090552;28;20397;-87
2023/09/15 08:32:31;;;;;;;;;;;;;;;30.29;33.26;98831.53;5091345;28;20023;-88
2023/09/15 08:34:58;;;;;;;;;;;;;;;30.38;32.70;98836.50;5089164;28;19920;-89
2023/09/15 08:37:24;;;;;;;;;;;;;;;29.07;34.80;98834.28;5091564;28;19927;-91
2023/09/15 08:39:50;;;;;;;;;;;;;;;29.55;33.63;98834.00;5091168;28;19924;-89
2023/09/15 08:42:20;;;;;;;;;;;;;;;31.67;30.64;98832.75;5091905;28;20024;-89
2023/09/15 08:44:48;;;;;;;;;;;;;;;32.42;29.78;98828.34;5088079;28;19924;-90
2023/09/15 08:47:14;;;;;;;;;;;;;;;32.63;28.88;98840.84;5091773;28;19994;-90
2023/09/15 08:49:43;;;;;;;;;;;;;;;31.43;30.78;98828.91;5091236;28;19931;-88
2023/09/15 08:52:09;;;;;;;;;;;;;;;32.11;29.02;98824.06;5091506;28;19971;-89
2023/09/15 08:54:36;;;;;;;;;;;;;;;31.33;31.05;98830.06;5093066;28;20304;-89
2023/09/15 08:57:02;;;;;;;;;;;;;;;30.36;32.28;98839.81;5091453;28;19920;-88
2023/09/15 08:59:29;;;;;;;;;;;;;;;30.80;31.51;98831.31;5088578;28;19955;-88
2023/09/15 09:01:56;;;;;;;;;;;;;;;31.38;30.58;98827.44;5088639;28;19924;-90
2023/09/15 09:04:22;;;;;;;;;;;;;;;30.51;31.95;98832.38;5091402;28;20018;-90
2023/09/15 09:06:48;;;;;;;;;;;;;;;31.21;31.11;98820.41;5090877;28;19959;-91
2023/09/15 09:09:15;;;;;;;;;;;;;;;31.75;30.35;98831.22;5088205;28;19927;-91
2023/09/15 09:11:41;;;;;;;;;;;;;;;32.56;28.49;98832.63;5091850;28;20016;-89
2023/09/15 09:14:11;;;;;;;;;;;;;;;31.60;31.04;98835.88;5088338;28;19931;-92
2023/09/15 09:16:37;;;;;;;;;;;;;;;30.60;30.90;98838.09;5091607;28;19924;-90
2023/09/15 09:19:06;;;;;;;;;;;;;;;30.01;31.77;98832.53;5090682;28;19927;-92
2023/09/15 09:21:32;;;;;;;;;;;;;;;29.19;32.29;98831.53;5088687;28;20007;-89
2023/09/15 09:23:58;;;;;;;;;;;;;;;29.46;31.97;98833.09;5092403;28;19923;-90
2023/09/15 09:26:24;;;;;;;;;;;;;;;29.76;32.98;98839.00;5090090;28;19920;-90
2023/09/15 09:28:54;;;;;;;;;;;;;;;29.60;33.77;98835.47;5092623;28;19973;-90
2023/09/15 09:31:21;;;;;;;;;;;;;;;29.38;32.58;98838.97;5088142;28;19920;-90
2023/09/15 09:33:48;;;;;;;;;;;;;;;30.42;31.35;98846.47;5090615;28;19920;-92
2023/09/15 09:36:15;;;;;;;;;;;;;;;31.66;28.81;98831.19;5089769;28;20360;-89
2023/09/15 09:38:44;;;;;;;;;;;;;;;31.30;29.42;98833.84;5090099;28;20216;-90
2023/09/15 09:41:10;;;;;;;;;;;;;;;30.92;29.54;98828.44;5090498;28;19932;-90
2023/09/15 09:43:40;;;;;;;;;;;;;;;29.42;31.43;98845.34;5091699;28;19924;-90
2023/09/15 09:46:06;;;;;;;;;;;;;;;29.47;31.68;98846.03;5087378;28;20163;-91
2023/09/15 09:48:35;;;;;;;;;;;;;;;29.41;31.44;98842.94;5091860;28;19977;-91
2023/09/15 09:51:02;;;;;;;;;;;;;;;29.77;30.40;98845.47;5088584;28;19920;-89
2023/09/15 09:53:32;;;;;;;;;;;;;;;30.92;29.98;98827.66;5089384;28;19931;-93
2023/09/15 09:56:04;;;;;;;;;;;;;;;31.62;29.31;98839.06;5088939;28;19974;-90
2023/09/15 09:58:31;;;;;;;;;;;;;;;34.25;26.00;98826.53;5089413;28;19928;-90
2023/09/15 10:00:58;;;;;;;;;;;;;;;32.66;27.18;98829.31;5089671;28;19920;-89
2023/09/15 10:03:24;;;;;;;;;;;;;;;30.19;31.31;98829.84;5088391;28;19927;-88
2023/09/15 10:05:51;;;;;;;;;;;;;;;30.14;30.57;98832.47;5091616;28;19920;-91
2023/09/15 10:08:17;;;;;;;;;;;;;;;29.83;31.32;98829.47;5092342;28;20009;-88
2023/09/15 10:10:44;;;;;;;;;;;;;;;30.28;30.22;98829.13;5091598;28;20023;-88
2023/09/15 10:13:10;;;;;;;;;;;;;;;30.09;31.10;98833.84;5089536;28;19917;-90
2023/09/15 10:15:43;;;;;;;;;;;;;;;29.91;30.94;98828.00;5087473;28;20791;-91
2023/09/15 10:18:12;;;;;;;;;;;;;;;31.27;29.33;98823.44;5091343;28;20300;-92
2023/09/15 10:20:39;;;;;;;;;;;;;;;31.69;28.08;98821.75;5090758;28;20030;-91
2023/09/15 10:23:10;;;;;;;;;;;;;;;31.44;28.57;98816.28;5096072;28;19924;-91
2023/09/15 10:25:43;;;;;;;;;;;;;;;31.62;28.50;98819.19;5093856;28;19931;-89
2023/09/15 10:28:10;;;;;;;;;;;;;;;32.25;28.71;98818.56;5091377;28;19920;-88
2023/09/15 10:30:36;;;;;;;;;;;;;;;33.98;25.76;98811.16;5093267;28;19931;-89
2023/09/15 10:33:07;;;;;;;;;;;;;;;32.93;27.68;98807.81;5093587;28;20433;-88
2023/09/15 10:35:33;;;;;;;;;;;;;;;31.78;28.30;98803.94;5095131;28;20365;-89
2023/09/15 10:38:03;;;;;;;;;;;;;;;33.08;25.86;98805.88;5091925;28;19943;-90
2023/09/15 10:40:49;;;;;;;;;;;;;;;31.66;28.85;98810.53;5094194;28;19927;-90
2023/09/15 10:43:19;;;;;;;;;;;;;;;29.91;30.62;98819.50;5092114;28;20006;-93
2023/09/15 10:46:12;;;;;;;;;;;;;;;28.67;32.73;98812.06;5092219;28;19928;-91
2023/09/15 10:48:41;;;;;;;;;;;;;;;31.44;28.38;98804.91;5087826;28;20019;-88
2023/09/15 10:51:08;;;;;;;;;;;;;;;32.95;27.54;98805.25;5093256;28;19924;-89
2023/09/15 10:53:45;;;;;;;;;;;;;;;30.84;28.05;98815.75;5094085;28;20293;-87
2023/09/15 10:56:13;;;;;;;;;;;;;;;32.16;27.96;98812.84;5090603;28;19920;-87
2023/09/15 10:58:40;;;;;;;;;;;;;;;31.32;28.38;98817.16;5090131;28;19970;-89
2023/09/15 11:01:08;;;;;;;;;;;;;;;31.59;27.33;98811.59;5094676;28;19924;-89
2023/09/15 11:03:35;;;;;;;;;;;;;;;31.81;27.11;98798.09;5092729;28;19920;-89
2023/09/15 11:06:03;;;;;;;;;;;;;;;29.66;31.04;98811.84;5095144;28;20273;-90
2023/09/15 11:08:29;;;;;;;;;;;;;;;28.94;32.35;98806.00;5094671;28;20489;-90
2023/09/15 11:10:59;;;;;;;;;;;;;;;29.33;30.60;98808.47;5094776;28;19923;-90
2023/09/15 11:13:25;;;;;;;;;;;;;;;30.01;30.39;98816.28;5104975;28;19920;-89
2023/09/15 11:15:51;;;;;;;;;;;;;;;31.17;28.86;98810.44;5109126;28;19943;-89
2023/09/15 11:18:18;;;;;;;;;;;;;;;30.84;28.97;98815.75;5096153;28;19924;-92
2023/09/15 11:20:44;;;;;;;;;;;;;;;31.72;27.42;98809.44;5084769;28;19943;-90
2023/09/15 11:23:10;;;;;;;;;;;;;;;32.84;26.63;98800.06;5095214;28;19920;-91
2023/09/15 11:25:36;;;;;;;;;;;;;;;32.39;27.33;98806.56;5094150;28;19922;-93
2023/09/15 11:28:03;;;;;;;;;;;;;;;32.24;27.66;98807.66;5094802;28;20007;-92
2023/09/15 11:30:29;;;;;;;;;;;;;;;32.95;28.08;98800.38;5095430;28;20374;-90
2023/09/15 11:32:58;;;;;;;;;;;;;;;30.83;28.68;98799.97;5095221;28;19916;-89
2023/09/15 11:35:24;;;;;;;;;;;;;;;31.70;28.66;98809.13;5091267;28;19920;-90
2023/09/15 11:37:51;;;;;;;;;;;;;;;30.56;29.71;98800.59;5086798;28;19927;-88
2023/09/15 11:40:23;;;;;;;;;;;;;;;31.51;28.24;98795.34;5092992;28;19919;-88
2023/09/15 11:42:56;;;;;;;;;;;;;;;32.59;26.86;98795.53;5092400;28;19955;-90
2023/09/15 11:45:26;;;;;;;;;;;;;;;32.94;25.77;98803.66;5091778;28;20445;-89
2023/09/15 11:47:53;;;;;;;;;;;;;;;31.56;27.17;98801.19;5094012;28;19924;-90
2023/09/15 11:50:19;;;;;;;;;;;;;;;31.87;26.86;98809.63;5088509;28;20754;-91
2023/09/15 11:52:45;;;;;;;;;;;;;;;31.86;25.88;98800.31;5091671;28;20438;-91
2023/09/15 11:55:19;;;;;;;;;;;;;;;32.81;25.59;98783.97;5091543;28;20373;-88
2023/09/15 11:57:45;;;;;;;;;;;;;;;33.37;24.94;98786.16;5095320;28;19920;-87
2023/09/15 12:00:13;;;;;;;;;;;;;;;32.45;26.94;98801.81;5091317;28;19920;-88
2023/09/15 12:02:40;;;;;;;;;;;;;;;30.76;28.60;98798.22;5090190;28;19923;-90
2023/09/15 12:05:06;;;;;;;;;;;;;;;31.13;28.41;98789.94;5093130;28;19935;-90
2023/09/15 12:07:32;;;;;;;;;;;;;;;32.15;27.51;98796.28;5084742;28;20377;-90
2023/09/15 12:09:58;;;;;;;;;;;;;;;30.18;30.26;98790.66;5093330;28;19950;-89
2023/09/15 12:12:24;;;;;;;;;;;;;;;30.36;30.16;98791.63;5093334;28;19916;-90
2023/09/15 12:14:54;;;;;;;;;;;;;;;30.53;29.55;98787.34;5092239;28;19919;-91
2023/09/15 12:17:20;;;;;;;;;;;;;;;30.22;28.94;98782.81;5089370;28;20377;-90
2023/09/15 12:19:46;;;;;;;;;;;;;;;30.76;29.55;98774.72;5093139;28;19924;-89
2023/09/15 12:22:12;;;;;;;;;;;;;;;29.51;30.93;98781.59;5091559;28;20440;-91
2023/09/15 12:24:38;;;;;;;;;;;;;;;31.25;29.75;98772.81;5092018;28;20002;-88
2023/09/15 12:27:05;;;;;;;;;;;;;;;30.39;30.25;98784.22;5091590;28;20400;-88
2023/09/15 12:29:31;;;;;;;;;;;;;;;30.01;29.39;98775.88;5092346;28;20002;-89
2023/09/15 12:31:57;;;;;;;;;;;;;;;30.32;29.71;98773.91;5088066;28;19947;-90
2023/09/15 12:34:24;;;;;;;;;;;;;;;29.92;29.55;98778.63;5093511;28;19916;-91
2023/09/15 12:36:55;;;;;;;;;;;;;;;30.55;29.28;98769.88;5091773;28;20026;-90
2023/09/15 12:39:22;;;;;;;;;;;;;;;31.22;28.92;98770.13;5093320;28;19946;-89
2023/09/15 12:41:57;;;;;;;;;;;;;;;32.65;26.11;98758.72;5092370;28;19920;-90
2023/09/15 12:44:25;;;;;;;;;;;;;;;32.58;28.36;98759.03;5091692;28;19916;-90
2023/09/15 12:46:51;;;;;;;;;;;;;;;31.90;27.23;98763.25;5092681;28;19924;-90